sensor_id;sensor_type;location;lat;lon;timestamp;P1;durP1;ratioP1;P2;durP2;ratioP2
22603;SDS011;11469;49.024;8.246;2024-03-02T00:01:20;14.57;;;7.05;;
22603;SDS011;11469;49.024;8.246;2024-03-02T00:03:45;14.27;;;7.78;;
22603;SDS011;11469;49.024;8.246;2024-03-02T00:06:11;13.68;;;7.40;;
22603;SDS011;11469;49.024;8.246;2024-03-02T00:08:37;13.27;;;7.15;;
22603;SDS011;11469;49.024;8.246;2024-03-02T00:11:02;21.95;;;10.23;;
22603;SDS011;11469;49.024;8.246;2024-03-02T00:13:28;14.10;;;8.57;;
22603;SDS011;11469;49.024;8.246;2024-03-02T00:15:56;17.20;;;8.05;;
22603;SDS011;11469;49.024;8.246;2024-03-02T00:18:32;15.48;;;7.75;;
22603;SDS011;11469;49.024;8.246;2024-03-02T00:20:59;15.32;;;8.38;;
22603;SDS011;11469;49.024;8.246;2024-03-02T00:23:27;15.43;;;7.88;;
22603;SDS011;11469;49.024;8.246;2024-03-02T00:25:55;12.43;;;7.03;;
22603;SDS011;11469;49.024;8.246;2024-03-02T00:28:22;11.55;;;6.15;;
22603;SDS011;11469;49.024;8.246;2024-03-02T00:36:05;10.23;;;6.32;;
22603;SDS011;11469;49.024;8.246;2024-03-02T00:38:32;15.68;;;6.70;;
22603;SDS011;11469;49.024;8.246;2024-03-02T00:40:59;11.60;;;6.38;;
22603;SDS011;11469;49.024;8.246;2024-03-02T00:43:42;11.45;;;6.72;;
22603;SDS011;11469;49.024;8.246;2024-03-02T00:46:08;14.55;;;6.97;;
22603;SDS011;11469;49.024;8.246;2024-03-02T00:48:35;12.20;;;6.68;;
22603;SDS011;11469;49.024;8.246;2024-03-02T00:51:01;13.32;;;7.60;;
22603;SDS011;11469;49.024;8.246;2024-03-02T00:53:31;12.32;;;7.00;;
22603;SDS011;11469;49.024;8.246;2024-03-02T00:55:57;13.35;;;7.72;;
22603;SDS011;11469;49.024;8.246;2024-03-02T00:58:24;19.83;;;7.05;;
22603;SDS011;11469;49.024;8.246;2024-03-02T01:00:50;12.30;;;6.75;;
22603;SDS011;11469;49.024;8.246;2024-03-02T01:03:15;13.93;;;6.68;;
22603;SDS011;11469;49.024;8.246;2024-03-02T01:05:41;10.32;;;6.07;;
22603;SDS011;11469;49.024;8.246;2024-03-02T01:08:07;12.10;;;6.82;;
22603;SDS011;11469;49.024;8.246;2024-03-02T01:10:33;11.20;;;6.75;;
22603;SDS011;11469;49.024;8.246;2024-03-02T01:12:58;12.05;;;6.72;;
22603;SDS011;11469;49.024;8.246;2024-03-02T01:15:23;16.85;;;7.20;;
22603;SDS011;11469;49.024;8.246;2024-03-02T01:17:49;13.40;;;6.35;;
22603;SDS011;11469;49.024;8.246;2024-03-02T01:20:14;12.48;;;7.10;;
22603;SDS011;11469;49.024;8.246;2024-03-02T01:22:40;13.77;;;6.78;;
22603;SDS011;11469;49.024;8.246;2024-03-02T01:25:05;12.82;;;6.65;;
22603;SDS011;11469;49.024;8.246;2024-03-02T01:27:31;13.60;;;6.03;;
22603;SDS011;11469;49.024;8.246;2024-03-02T01:29:56;8.45;;;5.38;;
22603;SDS011;11469;49.024;8.246;2024-03-02T01:32:21;9.15;;;5.55;;
22603;SDS011;11469;49.024;8.246;2024-03-02T01:34:47;10.38;;;5.72;;
22603;SDS011;11469;49.024;8.246;2024-03-02T01:37:12;9.98;;;5.97;;
22603;SDS011;11469;49.024;8.246;2024-03-02T01:39:38;8.30;;;5.25;;
22603;SDS011;11469;49.024;8.246;2024-03-02T01:42:04;9.32;;;5.60;;
22603;SDS011;11469;49.024;8.246;2024-03-02T01:44:29;11.18;;;6.00;;
22603;SDS011;11469;49.024;8.246;2024-03-02T01:46:55;9.98;;;5.75;;
22603;SDS011;11469;49.024;8.246;2024-03-02T01:49:20;11.75;;;6.63;;
22603;SDS011;11469;49.024;8.246;2024-03-02T01:51:46;10.38;;;6.22;;
22603;SDS011;11469;49.024;8.246;2024-03-02T01:54:11;9.98;;;5.68;;
22603;SDS011;11469;49.024;8.246;2024-03-02T01:56:37;11.35;;;6.55;;
22603;SDS011;11469;49.024;8.246;2024-03-02T01:59:02;16.20;;;7.03;;
22603;SDS011;11469;49.024;8.246;2024-03-02T02:01:28;15.35;;;7.10;;
22603;SDS011;11469;49.024;8.246;2024-03-02T02:03:53;12.90;;;7.57;;
22603;SDS011;11469;49.024;8.246;2024-03-02T02:06:19;28.60;;;12.52;;
22603;SDS011;11469;49.024;8.246;2024-03-02T02:08:44;18.35;;;8.73;;
22603;SDS011;11469;49.024;8.246;2024-03-02T02:11:10;16.85;;;7.32;;
22603;SDS011;11469;49.024;8.246;2024-03-02T02:13:35;18.60;;;7.30;;
22603;SDS011;11469;49.024;8.246;2024-03-02T02:16:07;15.85;;;7.85;;
22603;SDS011;11469;49.024;8.246;2024-03-02T02:18:33;14.60;;;6.88;;
22603;SDS011;11469;49.024;8.246;2024-03-02T02:20:59;12.32;;;6.72;;
22603;SDS011;11469;49.024;8.246;2024-03-02T02:23:24;13.23;;;7.45;;
22603;SDS011;11469;49.024;8.246;2024-03-02T02:25:49;9.65;;;5.95;;
22603;SDS011;11469;49.024;8.246;2024-03-02T02:28:15;11.45;;;5.80;;
22603;SDS011;11469;49.024;8.246;2024-03-02T02:30:40;16.98;;;6.05;;
22603;SDS011;11469;49.024;8.246;2024-03-02T02:33:06;11.25;;;6.00;;
22603;SDS011;11469;49.024;8.246;2024-03-02T02:35:31;8.60;;;5.47;;
22603;SDS011;11469;49.024;8.246;2024-03-02T02:37:57;10.73;;;6.10;;
22603;SDS011;11469;49.024;8.246;2024-03-02T02:40:24;13.60;;;6.40;;
22603;SDS011;11469;49.024;8.246;2024-03-02T02:42:49;12.35;;;6.40;;
22603;SDS011;11469;49.024;8.246;2024-03-02T02:45:15;10.20;;;5.57;;
22603;SDS011;11469;49.024;8.246;2024-03-02T02:47:41;10.77;;;5.55;;
22603;SDS011;11469;49.024;8.246;2024-03-02T02:50:07;13.75;;;6.55;;
22603;SDS011;11469;49.024;8.246;2024-03-02T02:52:33;13.00;;;6.50;;
22603;SDS011;11469;49.024;8.246;2024-03-02T02:55:01;16.33;;;7.07;;
22603;SDS011;11469;49.024;8.246;2024-03-02T02:57:28;12.18;;;7.07;;
22603;SDS011;11469;49.024;8.246;2024-03-02T02:59:55;11.32;;;6.32;;
22603;SDS011;11469;49.024;8.246;2024-03-02T03:02:21;9.25;;;5.50;;
22603;SDS011;11469;49.024;8.246;2024-03-02T03:04:46;12.23;;;5.90;;
22603;SDS011;11469;49.024;8.246;2024-03-02T03:07:11;20.50;;;7.65;;
22603;SDS011;11469;49.024;8.246;2024-03-02T03:09:37;16.60;;;7.22;;
22603;SDS011;11469;49.024;8.246;2024-03-02T03:12:03;14.60;;;7.32;;
22603;SDS011;11469;49.024;8.246;2024-03-02T03:14:29;11.18;;;6.97;;
22603;SDS011;11469;49.024;8.246;2024-03-02T03:16:54;14.07;;;7.18;;
22603;SDS011;11469;49.024;8.246;2024-03-02T03:19:20;14.10;;;7.35;;
22603;SDS011;11469;49.024;8.246;2024-03-02T03:21:45;15.48;;;8.13;;
22603;SDS011;11469;49.024;8.246;2024-03-02T03:24:10;13.48;;;7.32;;
22603;SDS011;11469;49.024;8.246;2024-03-02T03:26:36;10.63;;;7.00;;
22603;SDS011;11469;49.024;8.246;2024-03-02T03:29:02;12.38;;;6.47;;
22603;SDS011;11469;49.024;8.246;2024-03-02T03:31:27;14.23;;;7.75;;
22603;SDS011;11469;49.024;8.246;2024-03-02T03:33:53;16.70;;;7.38;;
22603;SDS011;11469;49.024;8.246;2024-03-02T03:36:19;15.73;;;7.00;;
22603;SDS011;11469;49.024;8.246;2024-03-02T03:38:44;14.18;;;6.50;;
22603;SDS011;11469;49.024;8.246;2024-03-02T03:41:09;9.80;;;5.13;;
22603;SDS011;11469;49.024;8.246;2024-03-02T03:43:35;10.57;;;5.65;;
22603;SDS011;11469;49.024;8.246;2024-03-02T03:46:00;12.15;;;6.18;;
22603;SDS011;11469;49.024;8.246;2024-03-02T03:48:27;10.18;;;5.97;;
22603;SDS011;11469;49.024;8.246;2024-03-02T03:50:55;13.52;;;6.82;;
22603;SDS011;11469;49.024;8.246;2024-03-02T03:53:21;11.18;;;6.43;;
22603;SDS011;11469;49.024;8.246;2024-03-02T03:55:47;12.07;;;7.30;;
22603;SDS011;11469;49.024;8.246;2024-03-02T03:58:14;14.52;;;8.43;;
22603;SDS011;11469;49.024;8.246;2024-03-02T04:00:41;11.18;;;7.13;;
22603;SDS011;11469;49.024;8.246;2024-03-02T04:03:07;13.00;;;6.97;;
22603;SDS011;11469;49.024;8.246;2024-03-02T04:05:32;13.48;;;7.38;;
22603;SDS011;11469;49.024;8.246;2024-03-02T04:07:58;13.90;;;6.97;;
22603;SDS011;11469;49.024;8.246;2024-03-02T04:10:23;14.52;;;7.03;;
22603;SDS011;11469;49.024;8.246;2024-03-02T04:12:49;13.82;;;6.93;;
22603;SDS011;11469;49.024;8.246;2024-03-02T04:15:15;13.50;;;7.15;;
22603;SDS011;11469;49.024;8.246;2024-03-02T04:17:41;11.93;;;7.15;;
22603;SDS011;11469;49.024;8.246;2024-03-02T04:20:06;15.85;;;7.32;;
22603;SDS011;11469;49.024;8.246;2024-03-02T04:22:33;12.48;;;7.40;;
22603;SDS011;11469;49.024;8.246;2024-03-02T04:24:59;11.85;;;6.95;;
22603;SDS011;11469;49.024;8.246;2024-03-02T04:27:25;11.27;;;6.90;;
22603;SDS011;11469;49.024;8.246;2024-03-02T04:29:51;11.00;;;6.55;;
22603;SDS011;11469;49.024;8.246;2024-03-02T04:32:16;12.20;;;6.25;;
22603;SDS011;11469;49.024;8.246;2024-03-02T04:34:42;16.67;;;6.90;;
22603;SDS011;11469;49.024;8.246;2024-03-02T04:37:08;15.07;;;7.22;;
22603;SDS011;11469;49.024;8.246;2024-03-02T04:39:34;13.30;;;7.22;;
22603;SDS011;11469;49.024;8.246;2024-03-02T04:42:00;10.95;;;6.68;;
22603;SDS011;11469;49.024;8.246;2024-03-02T04:44:26;16.17;;;7.28;;
22603;SDS011;11469;49.024;8.246;2024-03-02T04:46:51;16.27;;;6.97;;
22603;SDS011;11469;49.024;8.246;2024-03-02T04:49:17;11.00;;;6.88;;
22603;SDS011;11469;49.024;8.246;2024-03-02T04:51:42;13.50;;;6.88;;
22603;SDS011;11469;49.024;8.246;2024-03-02T04:54:07;11.13;;;6.70;;
22603;SDS011;11469;49.024;8.246;2024-03-02T04:56:33;13.32;;;7.03;;
22603;SDS011;11469;49.024;8.246;2024-03-02T04:59:09;12.45;;;6.75;;
22603;SDS011;11469;49.024;8.246;2024-03-02T05:01:34;10.50;;;6.30;;
22603;SDS011;11469;49.024;8.246;2024-03-02T05:04:00;13.95;;;6.70;;
22603;SDS011;11469;49.024;8.246;2024-03-02T05:06:25;10.82;;;6.63;;
22603;SDS011;11469;49.024;8.246;2024-03-02T05:08:50;10.73;;;6.68;;
22603;SDS011;11469;49.024;8.246;2024-03-02T05:11:16;12.23;;;6.43;;
22603;SDS011;11469;49.024;8.246;2024-03-02T05:14:00;17.20;;;7.47;;
22603;SDS011;11469;49.024;8.246;2024-03-02T05:16:25;10.88;;;6.20;;
22603;SDS011;11469;49.024;8.246;2024-03-02T05:18:51;10.00;;;5.85;;
22603;SDS011;11469;49.024;8.246;2024-03-02T05:21:17;11.02;;;6.15;;
22603;SDS011;11469;49.024;8.246;2024-03-02T05:23:42;12.95;;;6.43;;
22603;SDS011;11469;49.024;8.246;2024-03-02T05:26:08;14.23;;;6.85;;
22603;SDS011;11469;49.024;8.246;2024-03-02T05:28:36;12.13;;;5.22;;
22603;SDS011;11469;49.024;8.246;2024-03-02T05:31:01;10.35;;;6.65;;
22603;SDS011;11469;49.024;8.246;2024-03-02T05:33:27;12.05;;;6.72;;
22603;SDS011;11469;49.024;8.246;2024-03-02T05:35:53;12.85;;;6.45;;
22603;SDS011;11469;49.024;8.246;2024-03-02T05:38:18;11.70;;;6.15;;
22603;SDS011;11469;49.024;8.246;2024-03-02T05:40:44;10.32;;;6.03;;
22603;SDS011;11469;49.024;8.246;2024-03-02T05:43:09;11.27;;;6.22;;
22603;SDS011;11469;49.024;8.246;2024-03-02T05:45:34;10.27;;;6.13;;
22603;SDS011;11469;49.024;8.246;2024-03-02T05:48:00;11.85;;;6.35;;
22603;SDS011;11469;49.024;8.246;2024-03-02T05:50:25;11.80;;;5.97;;
22603;SDS011;11469;49.024;8.246;2024-03-02T05:52:50;9.88;;;5.85;;
22603;SDS011;11469;49.024;8.246;2024-03-02T05:55:16;13.10;;;6.55;;
22603;SDS011;11469;49.024;8.246;2024-03-02T05:57:41;12.05;;;6.68;;
22603;SDS011;11469;49.024;8.246;2024-03-02T06:00:07;10.63;;;6.30;;
22603;SDS011;11469;49.024;8.246;2024-03-02T06:02:33;12.05;;;6.18;;
22603;SDS011;11469;49.024;8.246;2024-03-02T06:05:00;12.25;;;6.40;;
22603;SDS011;11469;49.024;8.246;2024-03-02T06:07:25;11.80;;;6.82;;
22603;SDS011;11469;49.024;8.246;2024-03-02T06:09:51;12.90;;;6.90;;
22603;SDS011;11469;49.024;8.246;2024-03-02T06:12:17;12.80;;;7.55;;
22603;SDS011;11469;49.024;8.246;2024-03-02T06:14:43;17.42;;;7.38;;
22603;SDS011;11469;49.024;8.246;2024-03-02T06:17:09;14.52;;;6.82;;
22603;SDS011;11469;49.024;8.246;2024-03-02T06:19:34;17.55;;;6.88;;
22603;SDS011;11469;49.024;8.246;2024-03-02T06:21:59;13.98;;;7.18;;
22603;SDS011;11469;49.024;8.246;2024-03-02T06:24:25;11.10;;;6.93;;
22603;SDS011;11469;49.024;8.246;2024-03-02T06:26:51;12.85;;;6.38;;
22603;SDS011;11469;49.024;8.246;2024-03-02T06:29:17;11.82;;;6.50;;
22603;SDS011;11469;49.024;8.246;2024-03-02T06:31:42;12.10;;;7.55;;
22603;SDS011;11469;49.024;8.246;2024-03-02T06:34:08;15.52;;;7.40;;
22603;SDS011;11469;49.024;8.246;2024-03-02T06:36:33;14.70;;;7.70;;
22603;SDS011;11469;49.024;8.246;2024-03-02T06:38:59;16.10;;;7.03;;
22603;SDS011;11469;49.024;8.246;2024-03-02T06:41:24;13.93;;;7.55;;
22603;SDS011;11469;49.024;8.246;2024-03-02T06:43:51;18.05;;;8.57;;
22603;SDS011;11469;49.024;8.246;2024-03-02T06:46:24;23.85;;;11.18;;
22603;SDS011;11469;49.024;8.246;2024-03-02T06:48:50;25.17;;;12.45;;
22603;SDS011;11469;49.024;8.246;2024-03-02T06:51:15;32.67;;;16.13;;
22603;SDS011;11469;49.024;8.246;2024-03-02T06:53:40;25.50;;;12.65;;
22603;SDS011;11469;49.024;8.246;2024-03-02T06:56:06;23.02;;;11.10;;
22603;SDS011;11469;49.024;8.246;2024-03-02T06:58:32;23.63;;;10.70;;
22603;SDS011;11469;49.024;8.246;2024-03-02T07:00:57;18.85;;;10.27;;
22603;SDS011;11469;49.024;8.246;2024-03-02T07:03:23;24.90;;;11.25;;
22603;SDS011;11469;49.024;8.246;2024-03-02T07:05:48;21.20;;;9.65;;
22603;SDS011;11469;49.024;8.246;2024-03-02T07:08:13;21.77;;;10.88;;
22603;SDS011;11469;49.024;8.246;2024-03-02T07:10:39;22.95;;;10.85;;
22603;SDS011;11469;49.024;8.246;2024-03-02T07:13:04;21.88;;;11.95;;
22603;SDS011;11469;49.024;8.246;2024-03-02T07:15:30;20.08;;;10.35;;
22603;SDS011;11469;49.024;8.246;2024-03-02T07:18:10;14.48;;;8.00;;
22603;SDS011;11469;49.024;8.246;2024-03-02T07:20:35;13.93;;;8.25;;
22603;SDS011;11469;49.024;8.246;2024-03-02T07:23:01;16.13;;;8.45;;
22603;SDS011;11469;49.024;8.246;2024-03-02T07:25:26;15.10;;;8.45;;
22603;SDS011;11469;49.024;8.246;2024-03-02T07:27:51;25.33;;;14.02;;
22603;SDS011;11469;49.024;8.246;2024-03-02T07:30:17;24.67;;;12.70;;
22603;SDS011;11469;49.024;8.246;2024-03-02T07:32:43;19.35;;;11.70;;
22603;SDS011;11469;49.024;8.246;2024-03-02T07:35:11;30.77;;;17.90;;
22603;SDS011;11469;49.024;8.246;2024-03-02T07:37:38;29.02;;;16.50;;
22603;SDS011;11469;49.024;8.246;2024-03-02T07:40:04;24.30;;;13.98;;
22603;SDS011;11469;49.024;8.246;2024-03-02T07:42:29;20.92;;;12.80;;
22603;SDS011;11469;49.024;8.246;2024-03-02T07:44:55;18.27;;;11.60;;
22603;SDS011;11469;49.024;8.246;2024-03-02T07:47:20;21.73;;;11.40;;
22603;SDS011;11469;49.024;8.246;2024-03-02T07:49:45;20.10;;;10.68;;
22603;SDS011;11469;49.024;8.246;2024-03-02T07:52:11;20.48;;;10.88;;
22603;SDS011;11469;49.024;8.246;2024-03-02T07:54:37;22.88;;;10.75;;
22603;SDS011;11469;49.024;8.246;2024-03-02T07:57:02;26.30;;;13.88;;
22603;SDS011;11469;49.024;8.246;2024-03-02T07:59:28;19.60;;;10.90;;
22603;SDS011;11469;49.024;8.246;2024-03-02T08:01:53;18.70;;;10.15;;
22603;SDS011;11469;49.024;8.246;2024-03-02T08:04:20;16.73;;;9.82;;
22603;SDS011;11469;49.024;8.246;2024-03-02T08:06:46;18.50;;;8.82;;
22603;SDS011;11469;49.024;8.246;2024-03-02T08:09:12;15.40;;;8.60;;
22603;SDS011;11469;49.024;8.246;2024-03-02T08:11:37;14.48;;;7.53;;
22603;SDS011;11469;49.024;8.246;2024-03-02T08:14:03;13.07;;;7.53;;
22603;SDS011;11469;49.024;8.246;2024-03-02T08:16:29;12.27;;;7.25;;
22603;SDS011;11469;49.024;8.246;2024-03-02T08:18:54;14.35;;;7.50;;
22603;SDS011;11469;49.024;8.246;2024-03-02T08:21:22;11.65;;;7.15;;
22603;SDS011;11469;49.024;8.246;2024-03-02T08:23:48;12.02;;;6.40;;
22603;SDS011;11469;49.024;8.246;2024-03-02T08:26:13;12.10;;;5.57;;
22603;SDS011;11469;49.024;8.246;2024-03-02T08:28:38;8.73;;;5.32;;
22603;SDS011;11469;49.024;8.246;2024-03-02T08:31:07;11.25;;;6.07;;
22603;SDS011;11469;49.024;8.246;2024-03-02T08:33:33;12.02;;;5.63;;
22603;SDS011;11469;49.024;8.246;2024-03-02T08:35:59;10.52;;;5.85;;
22603;SDS011;11469;49.024;8.246;2024-03-02T08:38:25;9.98;;;5.80;;
22603;SDS011;11469;49.024;8.246;2024-03-02T08:40:51;13.52;;;5.97;;
22603;SDS011;11469;49.024;8.246;2024-03-02T08:43:16;15.13;;;6.03;;
22603;SDS011;11469;49.024;8.246;2024-03-02T08:45:42;15.13;;;6.18;;
22603;SDS011;11469;49.024;8.246;2024-03-02T08:48:08;9.55;;;6.20;;
22603;SDS011;11469;49.024;8.246;2024-03-02T08:50:34;11.15;;;6.95;;
22603;SDS011;11469;49.024;8.246;2024-03-02T08:52:59;12.60;;;6.43;;
22603;SDS011;11469;49.024;8.246;2024-03-02T08:55:25;9.65;;;6.22;;
22603;SDS011;11469;49.024;8.246;2024-03-02T08:57:50;11.23;;;5.55;;
22603;SDS011;11469;49.024;8.246;2024-03-02T09:00:16;10.88;;;6.25;;
22603;SDS011;11469;49.024;8.246;2024-03-02T09:02:43;13.02;;;6.32;;
22603;SDS011;11469;49.024;8.246;2024-03-02T09:05:09;11.77;;;7.00;;
22603;SDS011;11469;49.024;8.246;2024-03-02T09:07:35;12.95;;;6.90;;
22603;SDS011;11469;49.024;8.246;2024-03-02T09:10:00;13.95;;;7.65;;
22603;SDS011;11469;49.024;8.246;2024-03-02T09:12:25;15.48;;;7.32;;
22603;SDS011;11469;49.024;8.246;2024-03-02T09:14:51;10.45;;;6.50;;
22603;SDS011;11469;49.024;8.246;2024-03-02T09:17:16;17.15;;;7.10;;
22603;SDS011;11469;49.024;8.246;2024-03-02T09:19:42;11.80;;;7.00;;
22603;SDS011;11469;49.024;8.246;2024-03-02T09:22:07;12.82;;;7.35;;
22603;SDS011;11469;49.024;8.246;2024-03-02T09:24:32;11.50;;;7.40;;
22603;SDS011;11469;49.024;8.246;2024-03-02T09:26:58;12.10;;;7.60;;
22603;SDS011;11469;49.024;8.246;2024-03-02T09:29:24;13.73;;;7.93;;
22603;SDS011;11469;49.024;8.246;2024-03-02T09:31:49;14.05;;;7.60;;
22603;SDS011;11469;49.024;8.246;2024-03-02T09:34:15;12.32;;;7.53;;
22603;SDS011;11469;49.024;8.246;2024-03-02T09:36:42;11.63;;;6.82;;
22603;SDS011;11469;49.024;8.246;2024-03-02T09:39:07;12.40;;;6.90;;
22603;SDS011;11469;49.024;8.246;2024-03-02T09:41:34;11.68;;;6.95;;
22603;SDS011;11469;49.024;8.246;2024-03-02T09:44:02;12.30;;;6.28;;
22603;SDS011;11469;49.024;8.246;2024-03-02T09:46:27;10.93;;;6.10;;
22603;SDS011;11469;49.024;8.246;2024-03-02T09:48:53;7.00;;;3.97;;
22603;SDS011;11469;49.024;8.246;2024-03-02T09:51:19;7.28;;;4.10;;
22603;SDS011;11469;49.024;8.246;2024-03-02T09:53:44;8.07;;;5.07;;
22603;SDS011;11469;49.024;8.246;2024-03-02T09:56:12;10.70;;;6.18;;
22603;SDS011;11469;49.024;8.246;2024-03-02T09:58:38;11.90;;;5.53;;
22603;SDS011;11469;49.024;8.246;2024-03-02T10:01:05;9.02;;;5.45;;
22603;SDS011;11469;49.024;8.246;2024-03-02T10:03:31;11.38;;;5.70;;
22603;SDS011;11469;49.024;8.246;2024-03-02T10:06:18;14.30;;;4.97;;
22603;SDS011;11469;49.024;8.246;2024-03-02T10:08:46;9.07;;;5.60;;
22603;SDS011;11469;49.024;8.246;2024-03-02T10:14:09;10.40;;;5.30;;
22603;SDS011;11469;49.024;8.246;2024-03-02T10:19:23;8.48;;;4.82;;
22603;SDS011;11469;49.024;8.246;2024-03-02T10:21:53;9.43;;;4.70;;
22603;SDS011;11469;49.024;8.246;2024-03-02T10:24:19;10.00;;;4.72;;
22603;SDS011;11469;49.024;8.246;2024-03-02T10:26:46;7.15;;;4.43;;
22603;SDS011;11469;49.024;8.246;2024-03-02T10:29:12;8.88;;;4.28;;
22603;SDS011;11469;49.024;8.246;2024-03-02T10:31:38;11.68;;;4.38;;
22603;SDS011;11469;49.024;8.246;2024-03-02T10:34:04;10.77;;;5.15;;
22603;SDS011;11469;49.024;8.246;2024-03-02T10:36:30;8.07;;;4.25;;
22603;SDS011;11469;49.024;8.246;2024-03-02T10:38:57;9.73;;;4.57;;
22603;SDS011;11469;49.024;8.246;2024-03-02T10:41:24;7.30;;;3.67;;
22603;SDS011;11469;49.024;8.246;2024-03-02T10:43:52;8.80;;;4.03;;
22603;SDS011;11469;49.024;8.246;2024-03-02T10:46:20;8.00;;;4.00;;
22603;SDS011;11469;49.024;8.246;2024-03-02T10:48:46;8.90;;;3.63;;
22603;SDS011;11469;49.024;8.246;2024-03-02T10:51:11;11.45;;;4.45;;
22603;SDS011;11469;49.024;8.246;2024-03-02T10:53:37;8.13;;;4.10;;
22603;SDS011;11469;49.024;8.246;2024-03-02T10:56:02;5.38;;;3.17;;
22603;SDS011;11469;49.024;8.246;2024-03-02T10:58:32;7.47;;;3.70;;
22603;SDS011;11469;49.024;8.246;2024-03-02T11:01:02;6.10;;;3.72;;
22603;SDS011;11469;49.024;8.246;2024-03-02T11:03:29;10.18;;;3.78;;
22603;SDS011;11469;49.024;8.246;2024-03-02T11:05:58;8.50;;;3.80;;
22603;SDS011;11469;49.024;8.246;2024-03-02T11:08:25;9.25;;;3.33;;
22603;SDS011;11469;49.024;8.246;2024-03-02T11:10:58;5.00;;;2.95;;
22603;SDS011;11469;49.024;8.246;2024-03-02T11:13:31;5.43;;;3.28;;
22603;SDS011;11469;49.024;8.246;2024-03-02T11:15:59;4.53;;;3.05;;
22603;SDS011;11469;49.024;8.246;2024-03-02T11:18:28;5.47;;;2.80;;
22603;SDS011;11469;49.024;8.246;2024-03-02T11:20:55;7.95;;;3.58;;
22603;SDS011;11469;49.024;8.246;2024-03-02T11:23:21;7.70;;;3.58;;
22603;SDS011;11469;49.024;8.246;2024-03-02T11:31:56;5.93;;;2.63;;
22603;SDS011;11469;49.024;8.246;2024-03-02T11:34:31;5.15;;;2.67;;
22603;SDS011;11469;49.024;8.246;2024-03-02T11:36:58;5.22;;;2.38;;
22603;SDS011;11469;49.024;8.246;2024-03-02T11:39:25;6.95;;;4.07;;
22603;SDS011;11469;49.024;8.246;2024-03-02T11:41:51;6.10;;;2.88;;
22603;SDS011;11469;49.024;8.246;2024-03-02T11:44:16;8.30;;;2.70;;
22603;SDS011;11469;49.024;8.246;2024-03-02T11:46:44;14.50;;;3.70;;
22603;SDS011;11469;49.024;8.246;2024-03-02T11:49:14;10.10;;;2.42;;
22603;SDS011;11469;49.024;8.246;2024-03-02T11:51:40;3.83;;;2.22;;
22603;SDS011;11469;49.024;8.246;2024-03-02T11:56:50;3.03;;;1.73;;
22603;SDS011;11469;49.024;8.246;2024-03-02T11:59:16;49.28;;;26.48;;
22603;SDS011;11469;49.024;8.246;2024-03-02T12:01:41;39.15;;;22.15;;
22603;SDS011;11469;49.024;8.246;2024-03-02T12:04:08;5.07;;;2.30;;
22603;SDS011;11469;49.024;8.246;2024-03-02T12:06:35;31.15;;;16.02;;
22603;SDS011;11469;49.024;8.246;2024-03-02T12:09:00;3.03;;;1.90;;
22603;SDS011;11469;49.024;8.246;2024-03-02T12:11:26;3.30;;;1.63;;
22603;SDS011;11469;49.024;8.246;2024-03-02T12:13:51;4.30;;;1.42;;
22603;SDS011;11469;49.024;8.246;2024-03-02T12:16:23;4.43;;;1.30;;
22603;SDS011;11469;49.024;8.246;2024-03-02T12:18:49;2.00;;;1.20;;
22603;SDS011;11469;49.024;8.246;2024-03-02T12:21:14;3.55;;;1.40;;
22603;SDS011;11469;49.024;8.246;2024-03-02T12:23:40;4.47;;;2.10;;
22603;SDS011;11469;49.024;8.246;2024-03-02T12:26:06;4.05;;;1.55;;
22603;SDS011;11469;49.024;8.246;2024-03-02T12:28:32;2.97;;;1.13;;
22603;SDS011;11469;49.024;8.246;2024-03-02T12:30:58;3.70;;;1.92;;
22603;SDS011;11469;49.024;8.246;2024-03-02T12:33:24;2.45;;;1.40;;
22603;SDS011;11469;49.024;8.246;2024-03-02T12:35:49;2.65;;;1.35;;
22603;SDS011;11469;49.024;8.246;2024-03-02T12:38:15;2.08;;;0.80;;
22603;SDS011;11469;49.024;8.246;2024-03-02T12:40:41;1.92;;;1.10;;
22603;SDS011;11469;49.024;8.246;2024-03-02T12:43:06;3.17;;;0.80;;
22603;SDS011;11469;49.024;8.246;2024-03-02T12:45:32;2.90;;;1.10;;
22603;SDS011;11469;49.024;8.246;2024-03-02T12:47:59;3.33;;;0.88;;
22603;SDS011;11469;49.024;8.246;2024-03-02T12:50:25;1.48;;;0.80;;
22603;SDS011;11469;49.024;8.246;2024-03-02T12:52:54;1.48;;;0.70;;
22603;SDS011;11469;49.024;8.246;2024-03-02T12:55:20;8.18;;;3.70;;
22603;SDS011;11469;49.024;8.246;2024-03-02T12:57:47;2.30;;;1.10;;
22603;SDS011;11469;49.024;8.246;2024-03-02T13:00:14;3.25;;;0.73;;
22603;SDS011;11469;49.024;8.246;2024-03-02T13:02:40;1.27;;;0.60;;
22603;SDS011;11469;49.024;8.246;2024-03-02T13:05:06;2.08;;;0.80;;
22603;SDS011;11469;49.024;8.246;2024-03-02T13:07:38;1.52;;;0.50;;
22603;SDS011;11469;49.024;8.246;2024-03-02T13:10:04;1.60;;;0.73;;
22603;SDS011;11469;49.024;8.246;2024-03-02T13:12:32;2.42;;;0.90;;
22603;SDS011;11469;49.024;8.246;2024-03-02T13:14:58;4.53;;;1.10;;
22603;SDS011;11469;49.024;8.246;2024-03-02T13:17:27;3.25;;;0.60;;
22603;SDS011;11469;49.024;8.246;2024-03-02T13:19:53;1.77;;;0.77;;
22603;SDS011;11469;49.024;8.246;2024-03-02T13:22:22;3.90;;;0.75;;
22603;SDS011;11469;49.024;8.246;2024-03-02T13:24:50;3.13;;;0.77;;
22603;SDS011;11469;49.024;8.246;2024-03-02T13:27:16;2.13;;;0.88;;
22603;SDS011;11469;49.024;8.246;2024-03-02T13:29:44;1.67;;;0.70;;
22603;SDS011;11469;49.024;8.246;2024-03-02T13:32:10;1.73;;;0.77;;
22603;SDS011;11469;49.024;8.246;2024-03-02T13:34:35;2.15;;;0.73;;
22603;SDS011;11469;49.024;8.246;2024-03-02T13:37:02;0.88;;;0.60;;
22603;SDS011;11469;49.024;8.246;2024-03-02T13:39:27;1.52;;;0.80;;
22603;SDS011;11469;49.024;8.246;2024-03-02T13:41:55;1.58;;;0.70;;
22603;SDS011;11469;49.024;8.246;2024-03-02T13:44:28;2.47;;;0.90;;
22603;SDS011;11469;49.024;8.246;2024-03-02T13:46:53;1.38;;;0.70;;
22603;SDS011;11469;49.024;8.246;2024-03-02T13:49:19;2.42;;;1.00;;
22603;SDS011;11469;49.024;8.246;2024-03-02T13:51:44;2.17;;;0.80;;
22603;SDS011;11469;49.024;8.246;2024-03-02T13:54:10;1.65;;;0.82;;
22603;SDS011;11469;49.024;8.246;2024-03-02T13:56:36;4.82;;;0.93;;
22603;SDS011;11469;49.024;8.246;2024-03-02T13:59:04;3.13;;;0.90;;
22603;SDS011;11469;49.024;8.246;2024-03-02T14:01:30;2.85;;;1.08;;
22603;SDS011;11469;49.024;8.246;2024-03-02T14:03:57;2.00;;;0.90;;
22603;SDS011;11469;49.024;8.246;2024-03-02T14:06:23;1.38;;;0.80;;
22603;SDS011;11469;49.024;8.246;2024-03-02T14:08:48;2.15;;;0.88;;
22603;SDS011;11469;49.024;8.246;2024-03-02T14:11:14;1.92;;;0.98;;
22603;SDS011;11469;49.024;8.246;2024-03-02T14:13:43;1.70;;;0.80;;
22603;SDS011;11469;49.024;8.246;2024-03-02T14:16:12;1.65;;;1.05;;
22603;SDS011;11469;49.024;8.246;2024-03-02T14:18:37;2.90;;;1.27;;
22603;SDS011;11469;49.024;8.246;2024-03-02T14:21:03;4.95;;;1.00;;
22603;SDS011;11469;49.024;8.246;2024-03-02T14:23:28;7.28;;;2.20;;
22603;SDS011;11469;49.024;8.246;2024-03-02T14:25:54;3.55;;;1.10;;
22603;SDS011;11469;49.024;8.246;2024-03-02T14:28:20;2.47;;;0.90;;
22603;SDS011;11469;49.024;8.246;2024-03-02T14:30:46;2.30;;;1.10;;
22603;SDS011;11469;49.024;8.246;2024-03-02T14:33:11;2.15;;;1.00;;
22603;SDS011;11469;49.024;8.246;2024-03-02T14:35:36;3.70;;;1.10;;
22603;SDS011;11469;49.024;8.246;2024-03-02T14:38:02;1.50;;;0.90;;
22603;SDS011;11469;49.024;8.246;2024-03-02T14:40:27;1.95;;;1.00;;
22603;SDS011;11469;49.024;8.246;2024-03-02T14:42:54;1.83;;;0.90;;
22603;SDS011;11469;49.024;8.246;2024-03-02T14:45:20;3.20;;;1.50;;
22603;SDS011;11469;49.024;8.246;2024-03-02T14:47:45;2.50;;;1.20;;
22603;SDS011;11469;49.024;8.246;2024-03-02T14:50:11;7.47;;;1.50;;
22603;SDS011;11469;49.024;8.246;2024-03-02T14:52:36;2.83;;;1.45;;